createdAt,value
2019-04-29T00:07:32.235Z,96368.94
2019-04-29T00:22:39.949Z,96363.46
2019-04-29T00:37:54.468Z,96352.86
2019-04-29T00:53:04.426Z,96349.84
2019-04-29T01:08:10.957Z,96342.09
2019-04-29T01:23:18.726Z,96331.34
2019-04-29T01:38:25.628Z,96329.29
2019-04-29T01:53:33.421Z,96327.94
2019-04-29T02:08:40.599Z,96317.20
2019-04-29T02:23:54.893Z,96311.94
2019-04-29T02:39:18.863Z,96307.76
2019-04-29T02:54:27.337Z,96298.20
2019-04-29T03:09:52.437Z,96289.16
2019-04-29T03:24:59.528Z,96279.28
2019-04-29T03:40:08.627Z,96288.15
2019-04-29T03:55:18.341Z,96279.88
2019-04-29T04:10:26.036Z,96272.14
2019-04-29T04:25:33.681Z,96275.36
2019-04-29T04:40:51.437Z,96273.20
2019-04-29T04:56:01.006Z,96292.52
2019-04-29T05:11:09.557Z,96284.21
2019-04-29T05:26:17.112Z,96293.88
2019-04-29T05:41:24.899Z,96296.39
2019-04-29T05:56:31.883Z,96298.92
2019-04-29T06:11:39.807Z,96303.70
2019-04-29T06:26:46.553Z,96293.95
2019-04-29T06:41:53.685Z,96298.41
2019-04-29T06:57:00.753Z,96308.22
2019-04-29T07:12:12.363Z,96310.84
2019-04-29T07:27:17.981Z,96312.95
2019-04-29T07:42:32.040Z,96316.27
2019-04-29T07:57:34.105Z,96327.13
2019-04-29T08:12:42.424Z,96328.86
2019-04-29T08:27:49.771Z,96335.50
2019-04-29T08:43:15.966Z,96329.63
2019-04-29T08:58:28.168Z,96333.06
2019-04-29T09:13:38.627Z,96328.86
2019-04-29T09:28:49.797Z,96313.72
2019-04-29T09:44:03.904Z,96321.52
2019-04-29T09:59:24.945Z,96321.33
2019-04-29T10:14:32.320Z,96321.05
2019-04-29T10:29:39.550Z,96316.80
2019-04-29T10:45:03.134Z,96322.59
2019-04-29T11:00:31.582Z,96324.21
2019-04-29T11:15:38.948Z,96322.81
2019-04-29T11:30:45.930Z,96316.85
2019-04-29T11:45:55.229Z,96326.02
2019-04-29T12:01:08.335Z,96323.99
2019-04-29T12:16:19.696Z,96329.75
2019-04-29T12:31:29.368Z,96326.95
2019-04-29T12:46:38.563Z,96331.52
2019-04-29T13:02:04.288Z,96321.33
2019-04-29T13:17:31.569Z,96306.45
2019-04-29T13:32:38.635Z,96313.64
2019-04-29T13:47:50.568Z,96316.67
2019-04-29T14:03:01.236Z,96317.67
2019-04-29T14:18:11.581Z,96306.54
2019-04-29T14:33:24.319Z,96303.09
2019-04-29T14:48:41.556Z,96296.42
2019-04-29T15:03:58.842Z,96299.89
2019-04-29T15:19:12.757Z,96303.67
2019-04-29T15:34:17.140Z,96301.74
2019-04-29T15:49:24.840Z,96304.17
2019-04-29T16:04:35.637Z,96296.68
2019-04-29T16:19:43.561Z,96292.25
2019-04-29T16:34:52.889Z,96286.30
2019-04-29T16:50:04.883Z,96290.39
2019-04-29T17:05:10.937Z,96287.61
2019-04-29T17:20:19.993Z,96285.15
2019-04-29T17:35:29.086Z,96290.55
2019-04-29T17:50:46.210Z,96295.23
2019-04-29T18:05:58.228Z,96298.70
2019-04-29T18:21:06.884Z,96295.84
2019-04-29T18:36:23.459Z,96307.63
2019-04-29T18:51:25.613Z,96308.88
2019-04-29T19:06:32.779Z,96310.55
2019-04-29T19:21:39.492Z,96304.70
2019-04-29T19:36:46.247Z,96313.02
2019-04-29T19:51:55.187Z,96318.20
2019-04-29T20:07:06.411Z,96317.23
2019-04-29T20:22:11.721Z,96315.43
2019-04-29T20:37:19.784Z,96309.41
2019-04-29T20:52:26.635Z,96309.14
2019-04-29T21:07:34.040Z,96302.59
2019-04-29T21:22:42.779Z,96286.54
2019-04-29T21:38:02.428Z,96283.19
2019-04-29T21:53:09.536Z,96283.90
2019-04-29T22:08:20.733Z,96285.61
2019-04-29T22:23:25.371Z,96269.03
2019-04-29T22:38:32.318Z,96249.94
2019-04-29T22:53:40.006Z,96250.15
2019-04-29T23:08:48.239Z,96238.23
2019-04-29T23:24:17.143Z,96213.80
2019-04-29T23:39:21.569Z,96210.45
2019-04-29T23:54:29.724Z,96190.66
